Terminal Aerodrome Forecast
Issued by NWS Northern Indiana

Home | Current Version | Previous Version | Text Only | Print | Product List | Glossary On
Versions: 1 2 3 4 5 6 7 8 9 10 11 12 13 14 15 16 17 18 19 20 21
000
FTUS43 KIWX 171700
TAFFWA
TAF
KFWA 171728Z 1718/1818 27014G22KT 6SM -SHSN OVC015
     FM172300 28011KT P6SM OVC015
     FM180400 27007KT P6SM OVC025=

USA.gov is the U.S. government's official web portal to all federal, state and local government web resources and services.